Chesapeake, VA (23320)

6:06 PM EDT on March 30, 2017 (GMT -0400)
City Hall | | Change Station

Elev 20 ft 36.72 °N, 76.25 °W | Updated 1 minute ago

Overcast
Overcast
52.5 °F
Feels Like 52.5 °F
N
2.0
Wind Variable Wind from SSE
Gusts 10.0 mph

Today
High -- | Low -- °F
--% Chance of Precip.
Yesterday
High -- | Low -- °F
Precip. -- in
Pressure 30.11 in
Visibility 10.0 miles
Clouds Mostly Cloudy 6000 ft
Overcast 7000 ft
Dew Point 45 °F
Humidity 75%
Rainfall 0.00 in
Snow Depth Not available.
6:53 AM 7:25 PM
Waxing Crescent, 11% visible
METAR KCPK 302155Z AUTO 10009KT 10SM BKN060 OVC070 12/06 A3011 RMK AO2 T01170057
Pressure 30.11 in
Visibility 10.0 miles
Clouds Mostly Cloudy 6000 ft
Overcast 7000 ft
Dew Point 45 °F
Humidity 75%
Rainfall 0.00 in
Snow Depth Not available.
6:53 AM 7:25 PM
Waxing Crescent, 11% visible
METAR KCPK 302155Z AUTO 10009KT 10SM BKN060 OVC070 12/06 A3011 RMK AO2 T01170057

Get Severe Weather Alerts

Thanks for signing up!

Be on the lookout for a verification email in your inbox.

You'll start receiving the daily forecast at 8 AM.

×

10-Day Weather Forecast

Almanac

Astronomy

Mar. 30, 2017 Rise Set
Actual Time
Civil Twilight
Nautical Twilight
Astronomical Twilight
Moon
Length of Visible Light
Length of Day
Tomorrow will be .
, % of the Moon is Illuminated

Today's Extremes

State Highs State Lows

Community

WunderPhotos

Upload Photos

1,962,540 photos uploaded!

WunderBlog® & News

Nearby

Air Quality

  Air Quality AQ Index Pollutant
Not available.

Snow Depth

Station Depth Elevation

Earthquake Activity

City Distance Mag. Time & Date
Minimum magnitude displayed is 2.5.

Earthquake Activity

City Distance Mag. Time & Date
Minimum magnitude displayed is 2.5.

Coastal Water Temperatures

Place Temperature

Stations

Nearby Weather Stations

Station Location Temp. Windchill Dew Point Humidity Wind Precip. Elev Updated Type
                   

Watches & Warnings

There are currently no watches in effect.